EGEC

Campbeltown Airport

Airport
ICAO code
EGEC
IATA Code
CAL
Summary
ICAO Region
EUR
ICAO Territory
Location

Machrihanish, Scotland

Serving
Campbeltown
Elevation
42 ft
Coordinates
55° 26' 9" N , 5° 41' 1" W
KCC
Metar
EGEC 211050Z 16011KT 9999 SCT005 BKN030 14/13 Q1007

Description

Campbeltown Airport is located at Machrihanish, 3 nm west of Campbeltown, near the tip of the Kintyre peninsula in Argyll and Bute on the west coast of Scotland.

Climatology

Temperate Marine climate/Oceanic climate (Köppen climate classification Cfb) - Moderately cool summer and comparatively warm winter.

Runways

Designator Length Width Surface Rops
11/29 3049 46 ASP No/No

Airport map

Aerial View

SKYbrary Partners:

Safety knowledge contributed by: